Time;durP1;ratioP1;P1;durP2;ratioP2;P2;SDS_P1;SDS_P2;PMS_P1;PMS_P2;Temp;Humidity;BMP_temperature;BMP_pressure;BME280_temperature;BME280_humidity;BME280_pressure;Samples;Min_cycle;Max_cycle;Signal;HPM_P1;HPM_P2
2022/12/23 00:01:28;;;;;;;10.80;5.63;;;;;;;5.51;100.00;95664.00;5029183;28;101809;-68
2022/12/23 00:03:57;;;;;;;5.97;5.37;;;;;;;5.42;100.00;95647.75;5033089;27;102826;-68
2022/12/23 00:06:24;;;;;;;7.43;6.00;;;;;;;5.48;100.00;95649.44;5029411;28;101877;-68
2022/12/23 00:08:56;;;;;;;27.13;14.60;;;;;;;5.37;100.00;95662.66;5028040;28;105485;-68
2022/12/23 00:11:25;;;;;;;26.13;14.23;;;;;;;5.38;100.00;95661.63;5026850;28;103853;-68
2022/12/23 00:16:37;;;;;;;16.90;10.10;;;;;;;5.28;100.00;95666.72;5029118;27;102858;-68
2022/12/23 00:19:04;;;;;;;14.60;9.83;;;;;;;5.28;100.00;95671.97;5027715;27;102491;-69
2022/12/23 00:21:31;;;;;;;16.60;10.67;;;;;;;5.22;100.00;95673.72;5030523;28;101936;-68
2022/12/23 00:24:01;;;;;;;15.77;8.90;;;;;;;5.25;100.00;95675.88;5028721;27;102461;-69
2022/12/23 00:26:28;;;;;;;10.70;7.17;;;;;;;5.25;100.00;95675.88;5013321;28;102021;-68
2022/12/23 00:28:56;;;;;;;5.93;5.33;;;;;;;5.21;100.00;95664.22;5029083;28;105269;-69
2022/12/23 00:31:24;;;;;;;6.50;5.40;;;;;;;5.25;100.00;95664.56;5029422;27;106612;-69
2022/12/23 00:33:53;;;;;;;7.53;5.00;;;;;;;5.22;100.00;95667.66;5034049;27;101907;-68
2022/12/23 00:36:23;;;;;;;7.27;6.03;;;;;;;5.28;100.00;95653.53;5032943;27;102262;-69
2022/12/23 00:44:22;;;;;;;6.57;5.30;;;;;;;5.20;100.00;95630.19;5032870;28;106587;-69
2022/12/23 00:46:50;;;;;;;6.17;4.90;;;;;;;5.18;100.00;95645.47;5036850;27;102601;-68
2022/12/23 00:52:06;;;;;;;5.30;4.80;;;;;;;5.31;100.00;95634.63;5034102;27;102579;-68
2022/12/23 00:54:33;;;;;;;4.90;4.40;;;;;;;5.34;100.00;95636.81;5032826;28;102003;-68
2022/12/23 00:57:02;;;;;;;6.90;5.10;;;;;;;5.43;100.00;95622.19;5031088;28;103902;-68
2022/12/23 00:59:28;;;;;;;5.83;4.93;;;;;;;5.46;100.00;95611.19;5031539;28;105266;-68
2022/12/23 01:07:26;;;;;;;7.20;5.53;;;;;;;5.47;100.00;95589.84;5032461;27;105248;-68
2022/12/23 01:09:52;;;;;;;5.83;5.03;;;;;;;5.40;100.00;95580.50;5034143;28;101946;-68
2022/12/23 01:12:21;;;;;;;8.67;5.00;;;;;;;5.35;100.00;95575.91;5030500;28;104035;-68
2022/12/23 01:14:48;;;;;;;5.50;4.83;;;;;;;5.34;100.00;95576.19;5030821;28;101838;-68
2022/12/23 01:17:16;;;;;;;5.37;4.87;;;;;;;5.29;100.00;95570.81;5030677;28;105005;-68
2022/12/23 01:19:43;;;;;;;7.17;5.30;;;;;;;5.18;100.00;95567.19;5029796;28;105201;-68
2022/12/23 01:22:09;;;;;;;6.83;5.30;;;;;;;5.18;100.00;95561.13;5030630;28;101941;-68
2022/12/23 01:24:36;;;;;;;4.73;4.33;;;;;;;5.20;100.00;95559.03;5030567;28;104865;-68
2022/12/23 01:27:03;;;;;;;6.70;4.80;;;;;;;5.19;100.00;95560.88;5029673;28;103742;-68
2022/12/23 01:29:32;;;;;;;7.73;5.50;;;;;;;5.17;100.00;95576.13;5030455;28;101864;-68
2022/12/23 01:31:59;;;;;;;6.20;5.23;;;;;;;5.16;100.00;95579.00;5033230;28;103496;-68
2022/12/23 01:34:26;;;;;;;7.40;5.33;;;;;;;5.22;100.00;95585.94;5030457;28;102103;-68
2022/12/23 01:36:52;;;;;;;5.87;5.27;;;;;;;5.32;100.00;95565.03;5030547;28;103390;-68
2022/12/23 01:39:19;;;;;;;5.13;4.30;;;;;;;5.37;100.00;95559.88;5029906;28;105283;-68
2022/12/23 01:45:02;;;;;;;4.83;4.00;;;;;;;5.49;100.00;95550.03;5031966;27;102937;-68
2022/12/23 01:47:34;;;;;;;4.50;3.80;;;;;;;5.57;100.00;95547.81;4973284;28;104979;-68
2022/12/23 01:50:08;;;;;;;3.93;3.50;;;;;;;5.67;100.00;95544.56;4989698;28;101944;-68
2022/12/23 01:52:44;;;;;;;3.50;3.17;;;;;;;5.71;100.00;95540.38;4990381;28;102890;-68
2022/12/23 01:55:14;;;;;;;5.03;3.70;;;;;;;5.68;100.00;95541.66;4974748;28;104217;-68
2022/12/23 01:57:43;;;;;;;3.50;3.03;;;;;;;5.77;100.00;95532.31;4973310;28;105233;-68
2022/12/23 02:05:45;;;;;;;3.57;2.93;;;;;;;5.89;100.00;95501.38;4972304;28;103641;-68
2022/12/23 02:11:26;;;;;;;3.23;2.87;;;;;;;5.97;100.00;95518.66;4990249;28;101877;-68
2022/12/23 02:17:07;;;;;;;2.93;2.53;;;;;;;6.19;100.00;95530.03;4988791;28;102547;-68
2022/12/23 02:19:59;;;;;;;3.60;2.37;;;;;;;6.35;100.00;95542.41;4994292;28;102215;-68
2022/12/23 02:22:52;;;;;;;3.80;2.40;;;;;;;6.45;100.00;95531.97;5019979;28;105690;-68
2022/12/23 02:25:59;;;;;;;4.00;2.70;;;;;;;6.53;100.00;95523.59;5033008;27;101812;-68
2022/12/23 02:28:51;;;;;;;2.57;2.37;;;;;;;6.54;100.00;95531.28;5030521;27;102906;-68
2022/12/23 02:31:28;;;;;;;4.53;3.30;;;;;;;6.66;100.00;95533.81;5030797;27;102774;-68
2022/12/23 02:34:02;;;;;;;2.50;2.30;;;;;;;6.70;100.00;95524.38;5031203;27;101918;-68
2022/12/23 02:36:38;;;;;;;4.03;2.70;;;;;;;6.71;100.00;95542.59;5030933;27;102858;-68
2022/12/23 02:39:10;;;;;;;4.50;3.40;;;;;;;6.72;100.00;95538.13;5030625;27;102815;-68
2022/12/23 02:41:47;;;;;;;3.43;2.60;;;;;;;6.71;100.00;95536.53;5035225;27;101661;-68
2022/12/23 02:44:23;;;;;;;2.27;2.07;;;;;;;6.81;100.00;95526.06;5030655;27;102772;-68
2022/12/23 02:46:56;;;;;;;2.40;2.20;;;;;;;6.80;100.00;95522.63;5030880;27;101661;-68
2022/12/23 02:49:29;;;;;;;3.00;2.70;;;;;;;6.83;100.00;95535.31;5029353;28;105195;-68
2022/12/23 02:52:01;;;;;;;4.03;2.87;;;;;;;6.87;100.00;95540.94;5029853;28;105351;-68
2022/12/23 02:54:31;;;;;;;5.30;3.33;;;;;;;6.96;100.00;95542.88;5028918;27;101986;-68
2022/12/23 02:57:01;;;;;;;4.13;3.30;;;;;;;6.97;100.00;95538.38;5030201;28;103664;-68
2022/12/23 02:59:32;;;;;;;2.20;2.00;;;;;;;7.03;100.00;95543.47;5029737;27;103185;-68
2022/12/23 03:02:01;;;;;;;2.10;1.90;;;;;;;7.04;100.00;95544.28;5031233;27;101801;-68
2022/12/23 03:04:28;;;;;;;3.57;2.40;;;;;;;7.04;100.00;95557.50;5032560;28;105635;-68
2022/12/23 03:06:57;;;;;;;2.50;1.67;;;;;;;7.08;100.00;95553.28;5029885;28;101842;-68
2022/12/23 03:09:34;;;;;;;2.20;2.00;;;;;;;7.05;100.00;95559.91;5029846;28;105354;-68
2022/12/23 03:12:10;;;;;;;2.77;2.00;;;;;;;7.11;100.00;95548.34;5028827;28;105021;-68
2022/12/23 03:14:54;;;;;;;1.97;1.77;;;;;;;7.13;100.00;95553.34;5030609;27;102245;-68
2022/12/23 03:17:37;;;;;;;1.87;1.77;;;;;;;7.22;100.00;95575.66;5029295;28;105144;-68
2022/12/23 03:20:13;;;;;;;2.00;1.90;;;;;;;7.22;100.00;95570.38;5027892;28;105080;-68
2022/12/23 03:23:02;;;;;;;2.00;1.90;;;;;;;7.34;100.00;95568.38;5030595;27;101861;-68
2022/12/23 03:25:33;;;;;;;2.07;1.90;;;;;;;7.34;100.00;95573.66;5030396;27;102401;-68
2022/12/23 03:28:07;;;;;;;2.10;2.00;;;;;;;7.30;100.00;95569.94;5033245;28;102939;-68
2022/12/23 03:30:35;;;;;;;2.07;1.80;;;;;;;7.28;100.00;95564.91;5030385;27;104178;-68
2022/12/23 03:33:08;;;;;;;2.80;2.20;;;;;;;7.30;100.00;95577.88;5030128;27;103101;-68
2022/12/23 03:35:40;;;;;;;1.73;1.63;;;;;;;7.41;100.00;95574.28;5030725;27;102067;-68
2022/12/23 03:38:10;;;;;;;2.07;1.70;;;;;;;7.42;100.00;95581.16;5030643;27;102486;-68
2022/12/23 03:40:40;;;;;;;1.80;1.70;;;;;;;7.40;100.00;95580.59;5028673;28;106247;-68
2022/12/23 03:43:12;;;;;;;2.03;1.60;;;;;;;7.42;100.00;95576.66;5029841;28;101780;-68
2022/12/23 03:45:46;;;;;;;1.73;1.57;;;;;;;7.43;100.00;95577.47;5031357;27;102328;-68
2022/12/23 03:48:20;;;;;;;1.90;1.80;;;;;;;7.41;100.00;95576.94;5030599;27;103123;-68
2022/12/23 03:50:52;;;;;;;2.90;2.10;;;;;;;7.39;100.00;95576.38;5032225;28;101908;-68
2022/12/23 03:53:22;;;;;;;1.63;1.53;;;;;;;7.36;100.00;95593.53;5029729;27;102857;-68
2022/12/23 03:55:55;;;;;;;2.00;1.80;;;;;;;7.36;100.00;95584.81;5030888;27;101676;-68
2022/12/23 03:58:30;;;;;;;1.97;1.80;;;;;;;7.36;100.00;95584.81;5028856;28;105118;-68
2022/12/23 04:01:04;;;;;;;1.80;1.70;;;;;;;7.35;100.00;95572.63;5028873;27;104567;-68
2022/12/23 04:03:37;;;;;;;1.60;1.50;;;;;;;7.37;100.00;95591.69;5030376;27;101689;-68
2022/12/23 04:06:09;;;;;;;2.23;1.57;;;;;;;7.47;100.00;95578.56;5028664;28;105069;-68
2022/12/23 04:08:38;;;;;;;2.50;1.87;;;;;;;7.47;100.00;95578.56;5031888;28;104385;-68
2022/12/23 04:11:06;;;;;;;1.30;1.20;;;;;;;7.50;100.00;95586.00;5033206;27;102109;-68
2022/12/23 04:13:33;;;;;;;1.57;1.47;;;;;;;7.52;100.00;95589.97;5035205;28;105198;-68
2022/12/23 04:16:01;;;;;;;1.37;1.27;;;;;;;7.63;100.00;95589.03;5034147;27;101863;-68
2022/12/23 04:18:29;;;;;;;1.70;1.50;;;;;;;7.63;100.00;95581.09;5033876;27;103017;-68
2022/12/23 04:20:57;;;;;;;2.50;1.53;;;;;;;7.65;100.00;95581.66;5031221;28;103939;-69
2022/12/23 04:23:25;;;;;;;1.73;1.50;;;;;;;7.64;100.00;95579.25;5031921;28;102028;-69
2022/12/23 04:25:53;;;;;;;2.43;1.40;;;;;;;7.67;100.00;95584.03;5034002;27;102277;-69
2022/12/23 04:28:20;;;;;;;1.50;1.40;;;;;;;7.69;100.00;95577.44;5033357;27;102171;-69
2022/12/23 04:30:47;;;;;;;1.43;1.40;;;;;;;7.73;100.00;95583.03;5034209;27;102014;-69
2022/12/23 04:33:14;;;;;;;1.20;1.20;;;;;;;7.78;100.00;95591.00;5032493;28;103665;-69
2022/12/23 04:35:41;;;;;;;1.80;1.30;;;;;;;7.77;100.00;95597.34;5036638;27;102925;-69
2022/12/23 04:38:09;;;;;;;1.43;1.33;;;;;;;7.83;100.00;95594.50;5033929;27;102294;-69
2022/12/23 04:40:36;;;;;;;1.60;1.40;;;;;;;7.84;100.00;95601.38;5032217;28;104313;-69
2022/12/23 04:43:03;;;;;;;1.30;1.30;;;;;;;7.82;100.00;95605.34;5033602;27;101948;-69
2022/12/23 04:45:32;;;;;;;1.70;1.53;;;;;;;7.85;100.00;95594.25;5034319;27;102915;-69
2022/12/23 04:47:59;;;;;;;1.43;1.27;;;;;;;7.99;100.00;95588.28;5032071;28;104367;-69
2022/12/23 04:50:26;;;;;;;1.43;1.33;;;;;;;8.08;100.00;95601.84;5033367;27;101953;-69
2022/12/23 04:52:53;;;;;;;1.23;1.20;;;;;;;8.09;100.00;95598.97;5034018;27;102336;-69
2022/12/23 04:55:22;;;;;;;1.93;1.60;;;;;;;8.08;100.00;95597.34;5034317;28;105197;-69
2022/12/23 04:57:49;;;;;;;2.03;1.83;;;;;;;8.06;100.00;95601.28;5031987;28;104826;-69
2022/12/23 05:00:17;;;;;;;1.50;1.40;;;;;;;8.07;100.00;95605.56;5031175;28;105483;-69
2022/12/23 05:02:44;;;;;;;1.90;1.30;;;;;;;8.04;100.00;95606.06;5032068;28;101951;-69
2022/12/23 05:05:10;;;;;;;1.63;1.53;;;;;;;8.03;100.00;95612.41;5033544;27;102851;-69
2022/12/23 05:07:37;;;;;;;1.70;1.60;;;;;;;8.01;100.00;95609.22;5031214;28;105230;-69
2022/12/23 05:10:04;;;;;;;2.47;1.60;;;;;;;8.04;100.00;95608.69;5032581;27;101775;-69
2022/12/23 05:12:37;;;;;;;2.10;1.90;;;;;;;8.06;100.00;95622.47;5032110;27;102375;-69
2022/12/23 05:15:05;;;;;;;2.30;2.10;;;;;;;8.04;100.00;95622.75;5032507;27;102532;-69
2022/12/23 05:17:31;;;;;;;2.63;2.43;;;;;;;8.03;100.00;95615.03;5035490;27;102218;-69
2022/12/23 05:19:58;;;;;;;2.80;2.27;;;;;;;8.03;100.00;95615.84;5030184;28;105618;-69
2022/12/23 05:22:26;;;;;;;2.53;2.17;;;;;;;8.04;100.00;95617.44;5032241;27;101870;-69
2022/12/23 05:24:53;;;;;;;2.30;2.10;;;;;;;8.08;100.00;95615.09;5030762;28;105125;-69
2022/12/23 05:27:20;;;;;;;1.90;1.80;;;;;;;8.08;100.00;95617.75;5029606;28;105484;-69
2022/12/23 05:29:49;;;;;;;2.00;1.90;;;;;;;8.16;100.00;95612.78;5033007;27;101771;-69
2022/12/23 05:32:17;;;;;;;2.30;1.87;;;;;;;8.19;100.00;95612.25;5030329;28;105153;-69
2022/12/23 05:34:44;;;;;;;3.50;3.20;;;;;;;8.23;100.00;95615.25;5032460;27;102562;-69
2022/12/23 05:37:11;;;;;;;22.10;18.80;;;;;;;8.22;100.00;95618.91;5031003;28;101914;-69
2022/12/23 05:39:38;;;;;;;2.73;2.53;;;;;;;8.23;100.00;95616.03;5032264;28;105093;-69
2022/12/23 05:42:05;;;;;;;3.63;3.20;;;;;;;8.17;100.00;95617.00;5030383;28;102112;-69
2022/12/23 05:44:32;;;;;;;10.60;9.50;;;;;;;8.23;100.00;95626.63;5031534;27;102340;-69
2022/12/23 05:47:01;;;;;;;3.13;2.57;;;;;;;8.27;100.00;95626.91;5031102;27;102589;-69
2022/12/23 05:49:28;;;;;;;1.70;1.60;;;;;;;8.29;100.00;95617.66;5030159;28;101856;-69
2022/12/23 05:51:55;;;;;;;2.13;1.50;;;;;;;8.51;100.00;95622.84;5031666;27;102400;-69
2022/12/23 05:54:22;;;;;;;3.43;3.13;;;;;;;8.51;100.00;95620.97;5030462;27;103021;-69
2022/12/23 05:56:49;;;;;;;2.40;2.20;;;;;;;8.54;100.00;95640.88;5030284;28;102105;-69
2022/12/23 05:59:16;;;;;;;1.47;1.37;;;;;;;8.53;100.00;95629.50;5032256;27;102317;-69
2022/12/23 06:01:43;;;;;;;1.77;1.67;;;;;;;8.52;100.00;95632.38;5032955;28;105777;-69
2022/12/23 06:04:11;;;;;;;5.30;3.83;;;;;;;8.51;100.00;95633.44;5031479;27;101673;-69
2022/12/23 06:06:38;;;;;;;4.30;3.20;;;;;;;8.65;100.00;95645.19;5031583;27;102311;-69
2022/12/23 06:09:05;;;;;;;4.03;3.60;;;;;;;8.68;100.00;95640.16;5029770;28;101908;-69
2022/12/23 06:11:32;;;;;;;2.67;2.47;;;;;;;8.65;100.00;95639.88;5031274;27;102910;-68
2022/12/23 06:13:59;;;;;;;2.27;2.03;;;;;;;8.68;100.00;95634.84;5030715;27;102501;-69
2022/12/23 06:16:26;;;;;;;2.20;2.00;;;;;;;8.66;100.00;95646.75;5031182;27;101819;-68
2022/12/23 06:18:54;;;;;;;1.80;1.70;;;;;;;8.66;100.00;95646.75;5031165;27;102856;-69
2022/12/23 06:21:24;;;;;;;2.03;1.93;;;;;;;8.70;100.00;95645.22;5030429;27;102953;-69
2022/12/23 06:23:51;;;;;;;5.33;4.23;;;;;;;8.69;100.00;95651.56;5033982;27;101781;-69
2022/12/23 06:26:18;;;;;;;5.40;4.00;;;;;;;8.73;100.00;95645.50;5030189;27;102524;-69
2022/12/23 06:28:45;;;;;;;7.07;5.93;;;;;;;8.76;100.00;95641.53;5030912;27;101717;-69
2022/12/23 06:31:12;;;;;;;7.03;6.07;;;;;;;8.73;100.00;95664.03;5012047;28;104127;-69
2022/12/23 06:33:39;;;;;;;7.83;6.07;;;;;;;8.74;100.00;95662.19;5030299;27;102499;-69
2022/12/23 06:36:07;;;;;;;1.60;1.50;;;;;;;8.82;100.00;95673.13;5031070;27;101630;-69
2022/12/23 06:38:36;;;;;;;7.87;6.63;;;;;;;8.83;100.00;95669.41;5030743;27;102599;-69
2022/12/23 06:41:03;;;;;;;10.83;9.50;;;;;;;8.86;100.00;95662.78;5030081;28;103060;-69
2022/12/23 06:43:30;;;;;;;2.37;2.20;;;;;;;8.92;100.00;95672.38;5029350;28;101931;-69
2022/12/23 06:45:56;;;;;;;3.90;3.57;;;;;;;8.91;100.00;95666.28;5015391;28;105743;-69
2022/12/23 06:48:23;;;;;;;3.20;2.40;;;;;;;8.91;100.00;95684.84;5028934;28;101852;-69
2022/12/23 06:50:50;;;;;;;2.23;1.77;;;;;;;8.98;100.00;95689.91;5029048;28;106120;-68
2022/12/23 06:53:17;;;;;;;3.00;2.40;;;;;;;8.96;100.00;95692.84;5028457;28;105174;-69
2022/12/23 06:55:48;;;;;;;3.13;2.60;;;;;;;8.98;100.00;95697.84;5029110;28;101904;-69
2022/12/23 06:58:15;;;;;;;4.70;3.70;;;;;;;8.95;100.00;95704.47;5029247;28;104965;-69
2022/12/23 07:00:42;;;;;;;2.80;2.20;;;;;;;8.89;100.00;95710.03;5028616;28;104933;-68
2022/12/23 07:03:09;;;;;;;4.47;3.47;;;;;;;8.82;100.00;95717.38;5028815;28;101966;-68
2022/12/23 07:05:35;;;;;;;6.27;4.30;;;;;;;8.78;100.00;95714.44;5031962;28;105083;-68
2022/12/23 07:08:02;;;;;;;8.27;6.87;;;;;;;8.75;100.00;95722.91;5028770;28;102172;-68
2022/12/23 07:10:29;;;;;;;9.40;5.60;;;;;;;8.75;100.00;95720.28;5028825;28;105127;-68
2022/12/23 07:12:59;;;;;;;2.73;2.50;;;;;;;8.79;100.00;95717.91;5028025;28;105022;-68
2022/12/23 07:15:25;;;;;;;18.87;16.87;;;;;;;8.77;100.00;95727.97;5028820;28;101932;-68
2022/12/23 07:17:54;;;;;;;6.30;5.70;;;;;;;8.70;100.00;95725.53;5027929;28;105139;-68
2022/12/23 07:20:20;;;;;;;6.97;5.93;;;;;;;8.76;100.00;95736.94;5028190;28;105550;-68
2022/12/23 07:22:49;;;;;;;20.50;14.20;;;;;;;8.72;100.00;95728.72;5028608;28;101841;-69
2022/12/23 07:25:16;;;;;;;34.27;23.27;;;;;;;8.80;100.00;95725.59;5027274;28;104999;-69
2022/12/23 07:27:43;;;;;;;3.13;2.73;;;;;;;8.79;100.00;95736.47;5030455;28;105334;-69
2022/12/23 07:30:13;;;;;;;5.70;3.70;;;;;;;8.78;100.00;95740.94;5028782;28;105462;-69
2022/12/23 07:32:40;;;;;;;8.50;4.73;;;;;;;8.74;100.00;95739.06;5027985;28;105424;-69
2022/12/23 07:35:07;;;;;;;3.17;2.47;;;;;;;8.77;100.00;95738.56;5028258;28;102011;-69
2022/12/23 07:37:34;;;;;;;4.97;2.50;;;;;;;8.78;100.00;95740.16;5028586;28;103981;-68
2022/12/23 07:40:01;;;;;;;2.53;2.30;;;;;;;8.75;100.00;95735.38;5028020;28;105197;-74
2022/12/23 07:42:29;;;;;;;9.13;7.80;;;;;;;8.73;100.00;95743.56;5031797;27;101840;-67
2022/12/23 07:44:56;;;;;;;4.30;3.90;;;;;;;8.71;100.00;95731.63;5032011;28;103908;-67
2022/12/23 07:47:24;;;;;;;2.40;2.20;;;;;;;8.74;100.00;95736.41;5031071;28;103748;-67
2022/12/23 07:49:51;;;;;;;2.00;1.40;;;;;;;8.81;100.00;95742.28;5034605;28;102056;-67
2022/12/23 07:52:18;;;;;;;1.47;1.37;;;;;;;8.90;100.00;95746.84;5030937;28;105054;-67
2022/12/23 07:54:45;;;;;;;5.37;4.70;;;;;;;8.92;100.00;95747.41;5032894;27;101899;-67
2022/12/23 07:57:12;;;;;;;1.33;1.23;;;;;;;8.96;100.00;95758.31;5032947;27;102269;-67
2022/12/23 07:59:39;;;;;;;1.77;1.60;;;;;;;8.92;100.00;95746.59;5032001;27;102570;-67
2022/12/23 08:02:06;;;;;;;2.50;2.30;;;;;;;8.93;100.00;95748.19;5033081;27;101883;-67
2022/12/23 08:04:35;;;;;;;1.70;1.60;;;;;;;8.92;100.00;95754.56;5032984;27;102498;-67
2022/12/23 08:07:02;;;;;;;1.60;1.47;;;;;;;8.87;100.00;95755.34;5032191;27;102591;-67
2022/12/23 08:09:28;;;;;;;1.40;1.30;;;;;;;8.83;100.00;95756.13;5030823;28;102121;-66
2022/12/23 08:11:55;;;;;;;1.37;1.10;;;;;;;8.74;100.00;95761.09;5035727;27;102495;-67
2022/12/23 08:14:23;;;;;;;1.90;1.40;;;;;;;8.66;100.00;95769.50;5032611;27;102063;-67
2022/12/23 08:16:50;;;;;;;1.53;1.27;;;;;;;8.55;100.00;95765.16;5031697;28;105051;-67
2022/12/23 08:19:17;;;;;;;1.10;1.00;;;;;;;8.49;100.00;95768.81;5031882;27;102559;-67
2022/12/23 08:21:45;;;;;;;1.97;1.30;;;;;;;8.46;100.00;95753.41;5031123;28;101997;-67
2022/12/23 08:24:12;;;;;;;1.50;1.40;;;;;;;8.44;100.00;95765.31;5031188;28;103546;-66
2022/12/23 08:26:39;;;;;;;2.63;2.43;;;;;;;8.42;100.00;95770.06;5031859;27;102485;-67
2022/12/23 08:29:06;;;;;;;3.60;3.03;;;;;;;8.41;100.00;95787.03;5031596;28;101823;-66
2022/12/23 08:31:33;;;;;;;3.60;2.60;;;;;;;8.37;100.00;95785.91;5030930;28;104808;-66
2022/12/23 08:34:01;;;;;;;3.00;2.30;;;;;;;8.34;100.00;95792.53;5035259;27;102571;-67
2022/12/23 08:36:30;;;;;;;1.50;1.40;;;;;;;8.31;100.00;95782.44;5032830;27;101648;-67
2022/12/23 08:39:01;;;;;;;2.27;2.07;;;;;;;8.34;100.00;95781.13;5030796;28;103723;-66
2022/12/23 08:41:29;;;;;;;18.53;13.13;;;;;;;8.33;100.00;95780.31;5032427;28;102035;-67
2022/12/23 08:43:57;;;;;;;4.57;3.70;;;;;;;8.33;100.00;95777.69;5031582;27;102376;-66
2022/12/23 08:46:25;;;;;;;6.50;5.57;;;;;;;8.34;100.00;95781.13;5031655;28;103030;-67
2022/12/23 08:48:52;;;;;;;7.97;7.27;;;;;;;8.33;100.00;95776.88;5031034;28;101996;-67
2022/12/23 08:51:24;;;;;;;6.63;5.57;;;;;;;8.35;100.00;95780.09;5031832;27;102356;-67
2022/12/23 08:53:51;;;;;;;6.50;5.87;;;;;;;8.36;100.00;95784.31;5031093;27;103391;-67
2022/12/23 08:56:21;;;;;;;30.77;24.60;;;;;;;8.36;100.00;95784.31;5036300;27;102081;-66
2022/12/23 08:58:51;;;;;;;1.80;1.70;;;;;;;8.41;100.00;95787.03;5029383;28;104659;-67
2022/12/23 09:01:20;;;;;;;30.10;26.83;;;;;;;8.44;100.00;95783.84;5030458;28;101738;-67
2022/12/23 09:03:48;;;;;;;3.70;3.40;;;;;;;8.45;100.00;95786.25;5010570;28;102343;-67
2022/12/23 09:06:17;;;;;;;1.40;1.30;;;;;;;8.47;100.00;95775.41;5018425;28;102508;-66
2022/12/23 09:08:45;;;;;;;1.17;1.17;;;;;;;8.49;100.00;95779.41;5030991;28;101907;-67
2022/12/23 09:11:13;;;;;;;0.93;0.93;;;;;;;8.61;100.00;95784.56;5030175;28;103631;-67
2022/12/23 09:13:41;;;;;;;13.07;8.43;;;;;;;8.71;100.00;95776.66;5013095;28;106233;-67
2022/12/23 09:16:08;;;;;;;25.13;15.03;;;;;;;8.76;100.00;95782.81;5035522;27;101720;-67
2022/12/23 09:18:36;;;;;;;11.23;7.60;;;;;;;8.89;100.00;95792.22;5012414;28;105875;-67
2022/12/23 09:21:05;;;;;;;11.87;9.30;;;;;;;8.94;100.00;95786.94;5031764;27;101920;-67
2022/12/23 09:23:32;;;;;;;1.10;1.00;;;;;;;9.03;100.00;95796.00;5031217;27;102365;-67
2022/12/23 09:25:59;;;;;;;3.50;3.20;;;;;;;9.08;100.00;95794.19;5029559;28;102995;-67
2022/12/23 09:28:27;;;;;;;3.23;2.93;;;;;;;9.10;100.00;95802.69;5032049;27;102032;-67
2022/12/23 09:30:55;;;;;;;1.10;1.10;;;;;;;9.13;100.00;95801.38;5030221;28;105314;-66
2022/12/23 09:33:22;;;;;;;1.10;1.00;;;;;;;9.15;100.00;95809.88;5029843;28;104995;-67
2022/12/23 09:35:49;;;;;;;1.60;1.50;;;;;;;9.19;100.00;95813.63;5029610;28;101846;-67
2022/12/23 09:38:16;;;;;;;2.60;2.07;;;;;;;9.18;100.00;95820.81;5033017;28;105372;-67
2022/12/23 09:40:44;;;;;;;2.30;1.13;;;;;;;9.17;100.00;95811.22;5029792;28;101880;-67
2022/12/23 09:43:24;;;;;;;1.60;1.10;;;;;;;9.10;100.00;95809.88;5029956;28;105570;-67
2022/12/23 09:46:01;;;;;;;1.40;1.30;;;;;;;9.03;100.00;95801.31;5029576;28;105344;-67
2022/12/23 09:48:32;;;;;;;1.70;1.50;;;;;;;9.02;100.00;95810.31;5031459;27;101863;-67
2022/12/23 09:51:00;;;;;;;1.00;1.00;;;;;;;8.95;100.00;95809.75;5029506;28;105267;-67
2022/12/23 09:53:40;;;;;;;0.90;0.90;;;;;;;8.83;100.00;95812.56;5028874;28;104921;-67
2022/12/23 09:56:16;;;;;;;1.57;1.00;;;;;;;8.76;100.00;95819.94;5030917;27;101675;-67
2022/12/23 09:58:50;;;;;;;0.70;0.70;;;;;;;8.74;100.00;95823.91;5030151;28;105206;-67
2022/12/23 10:01:24;;;;;;;1.10;1.10;;;;;;;8.75;100.00;95820.19;5032668;28;105661;-67
2022/12/23 10:04:24;;;;;;;1.33;1.20;;;;;;;8.78;100.00;95830.31;5029129;27;105959;-67
2022/12/23 10:07:04;;;;;;;1.60;0.97;;;;;;;8.81;100.00;95819.16;5009266;28;105575;-67
2022/12/23 10:09:35;;;;;;;1.37;1.30;;;;;;;8.86;100.00;95827.16;5016777;28;101867;-67
2022/12/23 10:12:07;;;;;;;1.00;1.00;;;;;;;8.88;100.00;95835.69;5029683;28;104075;-67
2022/12/23 10:14:36;;;;;;;1.67;1.57;;;;;;;8.91;100.00;95835.16;5029168;28;105588;-66
2022/12/23 10:17:12;;;;;;;1.00;0.90;;;;;;;8.93;100.00;95819.78;5031084;27;101816;-67
2022/12/23 10:19:43;;;;;;;1.27;1.00;;;;;;;8.93;100.00;95828.56;5029543;28;103927;-67
2022/12/23 10:22:15;;;;;;;1.77;1.40;;;;;;;8.93;100.00;95815.31;5029209;28;105501;-67
2022/12/23 10:24:45;;;;;;;0.90;0.90;;;;;;;8.93;100.00;95812.66;5033050;28;101814;-67
2022/12/23 10:27:23;;;;;;;1.30;1.20;;;;;;;8.92;100.00;95808.41;5028396;28;105389;-67
2022/12/23 10:29:50;;;;;;;1.10;1.00;;;;;;;8.95;100.00;95809.75;5031035;27;101998;-66
2022/12/23 10:32:28;;;;;;;0.90;0.90;;;;;;;8.93;100.00;95807.34;5030925;27;101676;-67
2022/12/23 10:35:01;;;;;;;1.10;1.00;;;;;;;8.94;100.00;95802.84;5030200;27;103323;-67
2022/12/23 10:37:37;;;;;;;1.27;0.83;;;;;;;8.89;100.00;95789.56;5031067;27;101786;-67
2022/12/23 10:40:17;;;;;;;2.50;1.73;;;;;;;8.90;100.00;95789.28;5029291;28;105530;-66
2022/12/23 10:42:55;;;;;;;1.77;1.67;;;;;;;8.95;100.00;95778.72;5028734;28;105313;-66
2022/12/23 10:45:42;;;;;;;0.90;0.90;;;;;;;8.95;100.00;95777.94;5030463;27;102097;-66
2022/12/23 10:48:26;;;;;;;1.20;1.07;;;;;;;8.93;100.00;95780.03;5033798;27;102681;-67
2022/12/23 10:51:00;;;;;;;1.20;1.10;;;;;;;8.90;100.00;95781.31;5030592;27;101813;-66
2022/12/23 10:53:35;;;;;;;1.53;1.03;;;;;;;8.91;100.00;95777.66;5030821;27;102893;-66
2022/12/23 10:56:05;;;;;;;1.20;1.10;;;;;;;8.80;100.00;95777.81;5029944;27;102670;-66
2022/12/23 10:58:32;;;;;;;1.17;1.00;;;;;;;8.83;100.00;95774.66;5030099;27;103559;-66
2022/12/23 11:01:04;;;;;;;1.53;1.07;;;;;;;8.68;100.00;95762.06;5030635;27;102373;-66
2022/12/23 11:03:41;;;;;;;1.00;1.00;;;;;;;8.58;100.00;95762.03;5029718;28;103245;-66
2022/12/23 11:06:09;;;;;;;1.90;1.70;;;;;;;8.56;100.00;95764.09;5029205;28;101765;-66
2022/12/23 11:08:38;;;;;;;3.50;2.50;;;;;;;8.62;100.00;95767.59;5030282;27;102299;-67
2022/12/23 11:11:07;;;;;;;1.50;1.40;;;;;;;8.64;100.00;95761.00;5031361;28;102017;-66
2022/12/23 11:13:36;;;;;;;1.10;1.10;;;;;;;8.67;100.00;95759.69;5030191;27;102344;-67
2022/12/23 11:16:18;;;;;;;0.90;0.90;;;;;;;8.72;100.00;95751.78;5028251;28;102522;-67
2022/12/23 11:19:03;;;;;;;1.20;1.20;;;;;;;8.78;100.00;95745.47;5029582;27;102212;-66
2022/12/23 11:21:31;;;;;;;1.30;1.20;;;;;;;8.76;100.00;95743.06;5006655;28;104916;-66
2022/12/23 11:24:26;;;;;;;1.60;1.50;;;;;;;8.83;100.00;95734.91;5027212;28;102511;-67
2022/12/23 11:27:03;;;;;;;10.73;7.30;;;;;;;8.85;100.00;95730.13;4993789;28;101906;-67
2022/12/23 11:29:34;;;;;;;2.67;2.00;;;;;;;8.89;100.00;95720.63;5022720;28;105261;-67
2022/12/23 11:32:03;;;;;;;1.70;1.60;;;;;;;8.96;100.00;95713.25;5031437;28;106062;-67
2022/12/23 11:34:36;;;;;;;60.93;22.03;;;;;;;9.01;100.00;95718.56;5030165;27;102374;-66
2022/12/23 11:37:04;;;;;;;87.97;23.40;;;;;;;9.07;100.00;95718.34;5028975;28;102789;-66
2022/12/23 11:39:33;;;;;;;241.97;63.80;;;;;;;9.15;100.00;95717.03;5028706;27;101927;-66
2022/12/23 11:42:07;;;;;;;17.87;7.07;;;;;;;9.19;100.00;95707.53;5027367;28;105154;-66
2022/12/23 11:44:38;;;;;;;40.57;13.67;;;;;;;9.23;100.00;95704.13;5029389;27;103176;-66
2022/12/23 11:47:25;;;;;;;2.27;1.60;;;;;;;9.28;100.00;95700.69;5027386;28;102462;-66
2022/12/23 11:49:55;;;;;;;3.37;3.07;;;;;;;9.29;100.00;95707.56;5028904;28;102867;-67
2022/12/23 11:52:24;;;;;;;2.40;1.77;;;;;;;9.25;100.00;95698.53;5027674;28;104191;-66
2022/12/23 11:54:54;;;;;;;1.40;1.40;;;;;;;9.23;100.00;95696.16;5032263;28;101950;-66
2022/12/23 11:57:27;;;;;;;2.10;1.90;;;;;;;9.25;100.00;95687.91;5027471;28;104933;-66
2022/12/23 12:00:00;;;;;;;1.70;1.60;;;;;;;9.27;100.00;95689.25;5008120;28;101912;-66
2022/12/23 12:02:32;;;;;;;3.27;1.60;;;;;;;9.22;100.00;95691.88;5009917;28;104892;-66
2022/12/23 12:05:04;;;;;;;1.47;1.37;;;;;;;9.17;100.00;95688.44;5027777;28;104163;-66
2022/12/23 12:07:33;;;;;;;1.97;1.47;;;;;;;9.18;100.00;95687.38;5028070;28;102182;-66
2022/12/23 12:10:01;;;;;;;1.50;1.40;;;;;;;9.20;100.00;95685.25;5027964;28;105608;-66